createdAt,value
2019-03-25T00:01:37.042Z,12.00
2019-03-25T00:04:05.773Z,11.07
2019-03-25T00:06:34.488Z,10.90
2019-03-25T00:09:05.672Z,10.80
2019-03-25T00:11:34.496Z,10.93
2019-03-25T00:14:03.226Z,10.00
2019-03-25T00:16:33.258Z,10.07
2019-03-25T00:19:01.967Z,12.53
2019-03-25T00:21:30.693Z,12.27
2019-03-25T00:23:59.459Z,11.40
2019-03-25T00:26:28.247Z,12.13
2019-03-25T00:28:56.975Z,11.07
2019-03-25T00:31:26.128Z,11.30
2019-03-25T00:33:54.850Z,11.43
2019-03-25T00:36:23.572Z,11.33
2019-03-25T00:38:52.497Z,10.83
2019-03-25T00:41:21.231Z,10.73
2019-03-25T00:43:49.955Z,11.77
2019-03-25T00:46:18.775Z,13.30
2019-03-25T00:48:47.495Z,13.17
2019-03-25T00:51:16.220Z,13.07
2019-03-25T00:53:45.099Z,13.97
2019-03-25T00:56:13.815Z,13.87
2019-03-25T00:58:42.582Z,12.47
2019-03-25T01:01:11.692Z,12.80
2019-03-25T01:03:40.411Z,14.27
2019-03-25T01:06:09.141Z,13.67
2019-03-25T01:08:37.929Z,12.57
2019-03-25T01:11:06.659Z,13.17
2019-03-25T01:13:35.381Z,11.90
2019-03-25T01:16:04.164Z,12.17
2019-03-25T01:18:32.875Z,11.83
2019-03-25T01:21:01.594Z,11.53
2019-03-25T01:23:30.366Z,10.63
2019-03-25T01:25:59.084Z,9.93
2019-03-25T01:28:27.948Z,10.40
2019-03-25T01:30:56.727Z,9.90
2019-03-25T01:33:25.457Z,10.33
2019-03-25T01:35:54.180Z,9.37
2019-03-25T01:38:22.973Z,10.30
2019-03-25T01:40:51.694Z,9.23
2019-03-25T01:43:20.406Z,9.20
2019-03-25T01:45:49.174Z,9.53
2019-03-25T01:48:17.898Z,10.07
2019-03-25T01:50:46.613Z,9.50
2019-03-25T01:53:15.483Z,9.80
2019-03-25T01:55:44.200Z,9.60
2019-03-25T01:58:12.916Z,9.27
2019-03-25T02:00:41.821Z,8.90
2019-03-25T02:03:10.546Z,9.50
2019-03-25T02:05:39.262Z,9.43
2019-03-25T02:08:08.224Z,9.80
2019-03-25T02:10:36.944Z,9.40
2019-03-25T02:13:05.662Z,9.20
2019-03-25T02:15:34.821Z,8.67
2019-03-25T02:18:03.528Z,9.03
2019-03-25T02:20:32.265Z,8.17
2019-03-25T02:23:01.281Z,7.80
2019-03-25T02:25:30.213Z,8.23
2019-03-25T02:27:58.927Z,9.27
2019-03-25T02:30:27.728Z,7.80
2019-03-25T02:32:56.443Z,8.27
2019-03-25T02:35:25.170Z,8.53
2019-03-25T02:37:53.914Z,8.30
2019-03-25T02:40:22.629Z,8.37
2019-03-25T02:42:51.367Z,9.37
2019-03-25T02:45:20.134Z,8.90
2019-03-25T02:47:48.843Z,9.17
2019-03-25T02:50:17.567Z,8.83
2019-03-25T02:52:46.338Z,8.07
2019-03-25T02:55:15.055Z,9.07
2019-03-25T02:57:43.779Z,8.73
2019-03-25T03:00:13.354Z,7.27
2019-03-25T03:06:33.116Z,8.13
2019-03-25T03:09:02.923Z,8.57
2019-03-25T03:11:31.709Z,9.70
2019-03-25T03:14:00.430Z,8.37
2019-03-25T03:16:29.152Z,8.73
2019-03-25T03:18:57.933Z,9.40
2019-03-25T03:21:26.644Z,8.83
2019-03-25T03:23:55.382Z,19.17
2019-03-25T03:26:24.347Z,25.33
2019-03-25T03:28:53.070Z,18.47
2019-03-25T03:31:21.817Z,20.80
2019-03-25T03:33:50.615Z,18.50
2019-03-25T03:36:19.331Z,20.17
2019-03-25T03:38:48.060Z,18.57
2019-03-25T03:41:17.202Z,20.17
2019-03-25T03:43:45.917Z,21.33
2019-03-25T03:46:14.654Z,20.50
2019-03-25T03:48:43.521Z,17.53
2019-03-25T03:51:12.431Z,11.80
2019-03-25T03:53:41.460Z,10.30
2019-03-25T03:56:13.759Z,9.67
2019-03-25T03:58:42.782Z,10.00
2019-03-25T04:01:11.514Z,10.13
2019-03-25T04:03:40.480Z,15.97
2019-03-25T04:06:09.207Z,13.93
2019-03-25T04:08:37.927Z,16.37
2019-03-25T04:11:07.068Z,16.57
2019-03-25T04:13:35.788Z,16.77
2019-03-25T04:16:04.512Z,17.50
2019-03-25T04:18:33.364Z,16.73
2019-03-25T04:21:02.078Z,15.33
2019-03-25T04:23:30.819Z,15.37
2019-03-25T04:25:59.983Z,13.57
2019-03-25T04:28:28.717Z,14.77
2019-03-25T04:30:57.441Z,19.90
2019-03-25T04:33:26.225Z,17.43
2019-03-25T04:35:54.986Z,21.87
2019-03-25T04:38:23.713Z,21.43
2019-03-25T04:40:52.717Z,15.40
2019-03-25T04:43:21.431Z,13.80
2019-03-25T04:45:50.158Z,11.17
2019-03-25T04:48:18.909Z,10.53
2019-03-25T04:50:47.635Z,11.33
2019-03-25T04:53:16.353Z,11.30
2019-03-25T04:55:45.140Z,10.50
2019-03-25T04:58:13.862Z,9.97
2019-03-25T05:00:42.582Z,9.73
2019-03-25T05:03:11.354Z,9.80
2019-03-25T05:05:40.063Z,9.57
2019-03-25T05:08:08.793Z,12.93
2019-03-25T05:10:37.640Z,11.83
2019-03-25T05:13:06.471Z,9.73
2019-03-25T05:15:35.208Z,8.90
2019-03-25T05:18:04.087Z,7.93
2019-03-25T05:20:32.818Z,8.97
2019-03-25T05:23:01.533Z,9.80
2019-03-25T05:25:30.648Z,7.90
2019-03-25T05:27:59.368Z,8.10
2019-03-25T05:30:28.080Z,7.93
2019-03-25T05:32:56.966Z,8.17
2019-03-25T05:35:25.662Z,8.83
2019-03-25T05:37:54.393Z,8.30
2019-03-25T05:40:23.328Z,9.70
2019-03-25T05:42:52.063Z,12.33
2019-03-25T05:45:20.789Z,10.77
2019-03-25T05:47:49.633Z,12.03
2019-03-25T05:50:18.353Z,13.37
2019-03-25T05:52:47.080Z,12.83
2019-03-25T05:55:15.957Z,12.10
2019-03-25T05:57:44.678Z,11.97
2019-03-25T06:00:13.405Z,8.63
2019-03-25T06:02:42.429Z,9.00
2019-03-25T06:05:11.344Z,6.77
2019-03-25T06:07:40.055Z,6.43
2019-03-25T06:10:09.091Z,6.07
2019-03-25T06:12:37.815Z,6.30
2019-03-25T06:15:07.644Z,6.07
2019-03-25T06:17:36.896Z,6.83
2019-03-25T06:20:06.703Z,7.40
2019-03-25T06:22:35.423Z,7.70
2019-03-25T06:25:05.675Z,10.30
2019-03-25T06:27:34.389Z,8.33
2019-03-25T06:30:04.112Z,8.87
2019-03-25T06:32:33.106Z,9.53
2019-03-25T06:35:01.837Z,7.60
2019-03-25T06:37:30.558Z,6.27
2019-03-25T06:39:59.812Z,6.73
2019-03-25T06:42:28.525Z,6.90
2019-03-25T06:44:57.264Z,8.00
2019-03-25T06:47:26.458Z,6.77
2019-03-25T06:49:55.176Z,5.60
2019-03-25T06:52:27.049Z,7.63
2019-03-25T06:54:55.817Z,5.77
2019-03-25T06:57:25.708Z,6.07
2019-03-25T06:59:54.747Z,6.50
2019-03-25T07:02:23.883Z,5.60
2019-03-25T07:04:52.607Z,6.17
2019-03-25T07:07:21.324Z,6.20
2019-03-25T07:09:50.217Z,6.63
2019-03-25T07:12:19.137Z,7.00
2019-03-25T07:14:47.866Z,7.60
2019-03-25T07:17:16.624Z,7.17
2019-03-25T07:19:45.344Z,6.70
2019-03-25T07:22:14.063Z,7.43
2019-03-25T07:24:42.916Z,7.13
2019-03-25T07:27:11.641Z,6.87
2019-03-25T07:29:40.363Z,6.90
2019-03-25T07:32:09.203Z,7.03
2019-03-25T07:34:37.916Z,6.27
2019-03-25T07:37:06.630Z,6.80
2019-03-25T07:39:36.509Z,6.73
2019-03-25T07:42:05.301Z,7.20
2019-03-25T07:44:34.038Z,7.73
2019-03-25T07:47:02.814Z,7.10
2019-03-25T07:49:31.537Z,7.87
2019-03-25T07:52:00.269Z,10.03
2019-03-25T07:54:29.147Z,7.83
2019-03-25T07:56:57.869Z,8.43
2019-03-25T07:59:26.603Z,7.63
2019-03-25T08:01:55.702Z,7.47
2019-03-25T08:04:24.414Z,6.90
2019-03-25T08:06:53.167Z,7.27
2019-03-25T08:09:22.001Z,7.67
2019-03-25T08:11:50.742Z,7.90
2019-03-25T08:14:19.458Z,7.43
2019-03-25T08:16:48.419Z,7.23
2019-03-25T08:19:17.156Z,7.80
2019-03-25T08:21:45.967Z,7.53
2019-03-25T08:24:14.812Z,7.97
2019-03-25T08:26:43.535Z,8.37
2019-03-25T08:29:12.261Z,8.37
2019-03-25T08:31:41.038Z,8.47
2019-03-25T08:34:09.753Z,8.20
2019-03-25T08:36:38.547Z,7.23
2019-03-25T08:39:07.916Z,8.17
2019-03-25T08:41:36.626Z,8.40
2019-03-25T08:44:05.443Z,7.90
2019-03-25T08:46:34.259Z,8.27
2019-03-25T08:49:02.976Z,8.00
2019-03-25T08:51:31.698Z,7.77
2019-03-25T08:54:00.519Z,8.27
2019-03-25T08:56:29.247Z,7.23
2019-03-25T08:58:58.011Z,7.90
2019-03-25T09:01:26.903Z,7.67
2019-03-25T09:03:55.619Z,7.70
2019-03-25T09:06:24.452Z,7.73
2019-03-25T09:08:53.226Z,7.73
2019-03-25T09:11:21.971Z,8.73
2019-03-25T09:13:50.688Z,11.80
2019-03-25T09:16:19.493Z,18.00
2019-03-25T09:18:48.217Z,9.43
2019-03-25T09:21:16.941Z,9.07
2019-03-25T09:23:45.737Z,10.63
2019-03-25T09:26:14.568Z,9.50
2019-03-25T09:28:43.317Z,10.20
2019-03-25T09:31:14.120Z,9.13
2019-03-25T09:33:42.835Z,9.63
2019-03-25T09:36:11.660Z,10.53
2019-03-25T09:38:41.759Z,10.07
2019-03-25T09:41:10.490Z,8.93
2019-03-25T09:43:39.207Z,10.37
2019-03-25T09:46:08.577Z,11.10
2019-03-25T09:48:37.306Z,10.47
2019-03-25T09:51:06.534Z,10.33
2019-03-25T09:53:35.384Z,10.10
2019-03-25T09:56:04.112Z,10.20
2019-03-25T09:58:36.506Z,10.27
2019-03-25T10:01:03.348Z,10.07
2019-03-25T10:03:32.084Z,10.30
2019-03-25T10:06:00.817Z,10.70
2019-03-25T10:08:29.665Z,9.83
2019-03-25T10:10:58.390Z,10.33
2019-03-25T10:13:27.120Z,10.37
2019-03-25T10:15:55.876Z,9.73
2019-03-25T10:18:24.601Z,9.90
2019-03-25T10:20:53.341Z,9.60
2019-03-25T10:23:22.083Z,9.87
2019-03-25T10:25:50.815Z,9.33
2019-03-25T10:28:19.531Z,9.40
2019-03-25T10:30:48.404Z,8.13
2019-03-25T10:33:17.123Z,7.10
2019-03-25T10:35:45.844Z,8.83
2019-03-25T10:38:19.417Z,7.87
2019-03-25T10:40:45.096Z,7.70
2019-03-25T10:43:13.892Z,7.53
2019-03-25T10:45:42.762Z,7.97
2019-03-25T10:48:12.070Z,8.17
2019-03-25T10:50:40.803Z,7.73
2019-03-25T10:53:09.980Z,7.30
2019-03-25T10:55:38.777Z,7.77
2019-03-25T10:58:07.498Z,7.43
2019-03-25T11:00:36.940Z,8.00
2019-03-25T11:03:05.673Z,8.07
2019-03-25T11:05:34.406Z,7.33
2019-03-25T11:08:04.534Z,8.87
2019-03-25T11:10:33.273Z,12.67
2019-03-25T11:13:01.995Z,7.90
2019-03-25T11:15:30.903Z,8.67
2019-03-25T11:17:59.640Z,8.57
2019-03-25T11:20:28.352Z,8.60
2019-03-25T11:22:57.571Z,9.33
2019-03-25T11:25:26.351Z,12.17
2019-03-25T11:27:55.043Z,9.57
2019-03-25T11:30:29.366Z,8.93
2019-03-25T11:32:58.102Z,9.87
2019-03-25T11:35:26.814Z,8.20
2019-03-25T11:37:55.616Z,8.40
2019-03-25T11:40:24.337Z,9.33
2019-03-25T11:42:53.062Z,8.03
2019-03-25T11:45:21.945Z,7.90
2019-03-25T11:47:50.664Z,8.77
2019-03-25T11:50:19.429Z,7.90
2019-03-25T11:52:48.323Z,7.40
2019-03-25T11:55:17.865Z,8.73
2019-03-25T11:57:46.752Z,7.60
2019-03-25T12:00:15.827Z,7.47
2019-03-25T12:02:44.546Z,8.50
2019-03-25T12:05:13.490Z,7.80
2019-03-25T12:07:42.354Z,7.57
2019-03-25T12:10:11.370Z,7.53
2019-03-25T12:12:40.091Z,8.43
2019-03-25T12:15:09.938Z,7.50
2019-03-25T12:17:38.656Z,7.63
2019-03-25T12:20:08.169Z,7.70
2019-03-25T12:22:38.624Z,7.90
2019-03-25T12:25:08.458Z,7.03
2019-03-25T12:27:37.201Z,7.00
2019-03-25T12:30:08.634Z,7.30
2019-03-25T12:32:37.360Z,10.00
2019-03-25T12:35:09.552Z,7.60
2019-03-25T12:37:38.517Z,8.93
2019-03-25T12:40:07.990Z,7.70
2019-03-25T12:42:37.033Z,6.87
2019-03-25T12:45:09.333Z,6.60
2019-03-25T12:47:38.078Z,7.33
2019-03-25T12:50:08.677Z,7.17
2019-03-25T12:52:37.647Z,7.27
2019-03-25T12:55:06.768Z,8.17
2019-03-25T12:57:35.491Z,7.80
2019-03-25T13:00:09.167Z,7.57
2019-03-25T13:02:37.917Z,7.43
2019-03-25T13:05:07.516Z,7.47
2019-03-25T13:07:36.528Z,7.13
2019-03-25T13:10:07.048Z,6.60
2019-03-25T13:12:35.783Z,7.20
2019-03-25T13:15:06.679Z,7.03
2019-03-25T13:17:35.421Z,7.23
2019-03-25T13:20:06.224Z,6.07
2019-03-25T13:22:35.076Z,8.60
2019-03-25T13:25:03.814Z,5.40
2019-03-25T13:27:32.529Z,5.40
2019-03-25T13:30:01.292Z,7.13
2019-03-25T13:32:30.009Z,5.23
2019-03-25T13:34:58.735Z,5.17
2019-03-25T13:37:27.831Z,5.30
2019-03-25T13:39:56.548Z,5.03
2019-03-25T13:42:25.277Z,6.50
2019-03-25T13:44:57.431Z,4.80
2019-03-25T13:47:24.484Z,4.87
2019-03-25T13:49:53.195Z,6.30
2019-03-25T13:52:21.979Z,4.63
2019-03-25T13:54:50.738Z,4.47
2019-03-25T13:57:19.456Z,4.27
2019-03-25T13:59:48.443Z,4.97
2019-03-25T14:02:17.159Z,8.83
2019-03-25T14:04:45.873Z,5.27
2019-03-25T14:07:15.028Z,4.03
2019-03-25T14:09:43.735Z,4.40
2019-03-25T14:12:12.459Z,6.43
2019-03-25T14:14:41.219Z,4.20
2019-03-25T14:17:09.934Z,4.40
2019-03-25T14:19:38.659Z,4.50
2019-03-25T14:22:07.660Z,4.50
2019-03-25T14:24:36.368Z,4.67
2019-03-25T14:27:05.422Z,4.30
2019-03-25T14:29:34.194Z,5.37
2019-03-25T14:32:02.922Z,5.00
2019-03-25T14:34:31.678Z,7.27
2019-03-25T14:37:00.412Z,4.80
2019-03-25T14:39:29.135Z,12.40
2019-03-25T14:41:57.856Z,5.03
2019-03-25T14:44:26.643Z,4.30
2019-03-25T14:46:55.427Z,5.13
2019-03-25T14:49:24.148Z,4.97
2019-03-25T14:51:52.908Z,4.17
2019-03-25T14:54:21.635Z,5.07
2019-03-25T14:56:50.413Z,5.50
2019-03-25T14:59:19.554Z,4.53
2019-03-25T15:01:48.271Z,4.70
2019-03-25T15:04:16.995Z,4.50
2019-03-25T15:06:45.750Z,4.73
2019-03-25T15:09:14.463Z,4.30
2019-03-25T15:11:43.182Z,4.47
2019-03-25T15:14:11.939Z,5.40
2019-03-25T15:16:40.651Z,4.30
2019-03-25T15:19:09.364Z,4.60
2019-03-25T15:21:38.247Z,4.27
2019-03-25T15:24:06.960Z,4.27
2019-03-25T15:26:35.682Z,8.30
2019-03-25T15:29:04.435Z,8.60
2019-03-25T15:31:33.156Z,19.67
2019-03-25T15:34:01.870Z,5.80
2019-03-25T15:36:31.067Z,4.50
2019-03-25T15:38:59.781Z,4.30
2019-03-25T15:41:28.500Z,3.83
2019-03-25T15:43:57.268Z,5.00
2019-03-25T15:46:25.992Z,5.83
2019-03-25T15:48:54.709Z,4.93
2019-03-25T15:51:23.501Z,5.40
2019-03-25T15:53:52.219Z,3.30
2019-03-25T15:56:20.941Z,4.07
2019-03-25T15:58:49.814Z,3.30
2019-03-25T16:01:18.533Z,3.00
2019-03-25T16:03:47.247Z,3.33
2019-03-25T16:06:16.017Z,4.00
2019-03-25T16:08:44.735Z,2.93
2019-03-25T16:11:13.453Z,3.10
2019-03-25T16:13:42.328Z,3.10
2019-03-25T16:16:11.049Z,3.20
2019-03-25T16:18:40.971Z,3.77
2019-03-25T16:21:10.035Z,3.60
2019-03-25T16:23:38.856Z,3.70
2019-03-25T16:26:07.576Z,4.50
2019-03-25T16:28:36.857Z,4.23
2019-03-25T16:31:05.816Z,4.97
2019-03-25T16:33:34.538Z,6.43
2019-03-25T16:36:04.663Z,9.13
2019-03-25T16:38:33.385Z,3.07
2019-03-25T16:41:02.114Z,3.03
2019-03-25T16:43:31.137Z,4.25
2019-03-25T16:45:59.832Z,3.60
2019-03-25T16:48:28.557Z,6.28
2019-03-25T16:50:57.713Z,3.20
2019-03-25T16:53:26.440Z,2.73
2019-03-25T16:55:55.148Z,2.93
2019-03-25T16:58:24.296Z,3.27
2019-03-25T17:00:53.059Z,4.10
2019-03-25T17:03:21.762Z,3.93
2019-03-25T17:05:50.638Z,4.00
2019-03-25T17:08:19.394Z,4.70
2019-03-25T17:10:48.180Z,5.47
2019-03-25T17:13:17.226Z,6.70
2019-03-25T17:15:45.955Z,10.10
2019-03-25T17:18:14.682Z,7.83
2019-03-25T17:20:43.564Z,5.47
2019-03-25T17:23:12.290Z,5.17
2019-03-25T17:25:41.006Z,4.30
2019-03-25T17:28:09.803Z,3.87
2019-03-25T17:30:38.529Z,4.30
2019-03-25T17:33:07.247Z,4.43
2019-03-25T17:35:36.351Z,4.70
2019-03-25T17:38:05.075Z,4.53
2019-03-25T17:40:33.871Z,4.67
2019-03-25T17:43:03.287Z,5.10
2019-03-25T17:45:32.006Z,5.43
2019-03-25T17:48:00.722Z,3.70
2019-03-25T17:50:29.856Z,3.57
2019-03-25T17:52:58.573Z,3.50
2019-03-25T17:55:27.295Z,3.80
2019-03-25T17:57:56.055Z,5.57
2019-03-25T18:00:50.163Z,8.17
2019-03-25T18:03:19.182Z,8.33
2019-03-25T18:05:47.908Z,9.53
2019-03-25T18:08:16.628Z,9.57
2019-03-25T18:10:45.665Z,7.97
2019-03-25T18:13:22.346Z,8.33
2019-03-25T18:15:44.830Z,6.53
2019-03-25T18:18:14.255Z,5.83
2019-03-25T18:20:42.988Z,5.60
2019-03-25T18:23:19.950Z,4.23
2019-03-25T18:25:48.667Z,3.97
2019-03-25T18:28:17.381Z,3.90
2019-03-25T18:30:46.164Z,4.33
2019-03-25T18:33:14.877Z,4.60
2019-03-25T18:35:43.593Z,4.40
2019-03-25T18:38:21.938Z,4.93
2019-03-25T18:40:50.688Z,4.07
2019-03-25T18:43:19.409Z,4.00
2019-03-25T18:45:49.629Z,6.53
2019-03-25T18:48:18.367Z,9.53
2019-03-25T18:50:47.078Z,8.67
2019-03-25T18:53:16.214Z,6.80
2019-03-25T18:55:44.983Z,6.37
2019-03-25T18:58:13.681Z,10.90
2019-03-25T19:00:42.449Z,13.87
2019-03-25T19:03:11.180Z,12.00
2019-03-25T19:05:39.926Z,8.77
2019-03-25T19:08:09.912Z,8.23
2019-03-25T19:10:38.627Z,5.20
2019-03-25T19:13:07.350Z,4.73
2019-03-25T19:15:36.120Z,3.93
2019-03-25T19:18:04.831Z,4.77
2019-03-25T19:20:33.593Z,4.87
2019-03-25T19:23:02.737Z,3.97
2019-03-25T19:25:31.461Z,4.40
2019-03-25T19:28:00.158Z,4.90
2019-03-25T19:30:28.931Z,4.60
2019-03-25T19:32:57.665Z,4.57
2019-03-25T19:35:26.394Z,4.53
2019-03-25T19:37:55.283Z,4.90
2019-03-25T19:40:24.078Z,4.30
2019-03-25T19:42:52.773Z,4.47
2019-03-25T19:45:21.713Z,3.90
2019-03-25T19:47:50.451Z,4.60
2019-03-25T19:50:19.144Z,5.20
2019-03-25T19:52:48.229Z,4.57
2019-03-25T19:55:16.967Z,5.30
2019-03-25T19:57:45.676Z,4.50
2019-03-25T20:00:14.886Z,4.30
2019-03-25T20:02:43.574Z,3.60
2019-03-25T20:05:12.866Z,3.50
2019-03-25T20:07:42.667Z,3.77
2019-03-25T20:10:29.415Z,3.53
2019-03-25T20:12:59.223Z,2.97
2019-03-25T20:15:28.201Z,3.33
2019-03-25T20:17:58.374Z,3.40
2019-03-25T20:20:27.363Z,3.30
2019-03-25T20:22:56.120Z,3.80
2019-03-25T20:25:24.883Z,4.27
2019-03-25T20:27:53.895Z,3.60
2019-03-25T20:30:25.809Z,3.73
2019-03-25T20:32:54.528Z,3.47
2019-03-25T20:35:23.460Z,3.63
2019-03-25T20:37:52.193Z,4.07
2019-03-25T20:40:20.916Z,3.83
2019-03-25T20:42:50.156Z,2.97
2019-03-25T20:45:18.856Z,3.77
2019-03-25T20:47:47.608Z,3.23
2019-03-25T20:50:16.364Z,4.10
2019-03-25T20:52:45.087Z,3.60
2019-03-25T20:55:13.801Z,3.80
2019-03-25T20:57:42.687Z,4.27
2019-03-25T21:00:12.399Z,5.37
2019-03-25T21:02:45.380Z,4.60
2019-03-25T21:05:11.723Z,4.10
2019-03-25T21:07:40.444Z,3.30
2019-03-25T21:10:09.626Z,3.40
2019-03-25T21:12:39.002Z,3.60
2019-03-25T21:15:09.234Z,4.10
2019-03-25T21:17:37.937Z,3.67
2019-03-25T21:20:08.090Z,3.87
2019-03-25T21:22:36.810Z,3.60
2019-03-25T21:25:07.221Z,3.93
2019-03-25T21:27:36.137Z,4.27
2019-03-25T21:30:07.072Z,3.70
2019-03-25T21:32:35.798Z,4.00
2019-03-25T21:35:06.893Z,8.37
2019-03-25T21:37:35.645Z,9.63
2019-03-25T21:40:07.050Z,8.53
2019-03-25T21:42:36.280Z,6.67
2019-03-25T21:45:07.426Z,4.93
2019-03-25T21:47:36.320Z,4.17
2019-03-25T21:50:06.803Z,4.97
2019-03-25T21:52:35.653Z,6.10
2019-03-25T21:55:05.690Z,5.37
2019-03-25T21:57:34.728Z,6.03
2019-03-25T22:00:04.703Z,5.80
2019-03-25T22:02:33.444Z,7.03
2019-03-25T22:05:02.554Z,7.00
2019-03-25T22:07:31.265Z,6.67
2019-03-25T22:09:59.977Z,6.73
2019-03-25T22:12:28.887Z,6.47
2019-03-25T22:14:57.628Z,7.73
2019-03-25T22:17:26.329Z,6.40
2019-03-25T22:19:55.483Z,7.17
2019-03-25T22:22:24.210Z,7.10
2019-03-25T22:24:52.918Z,7.17
2019-03-25T22:27:21.809Z,6.37
2019-03-25T22:29:50.525Z,5.83
2019-03-25T22:32:19.234Z,6.17
2019-03-25T22:34:48.018Z,5.57
2019-03-25T22:37:16.744Z,7.00
2019-03-25T22:39:45.451Z,7.00
2019-03-25T22:42:14.298Z,6.93
2019-03-25T22:44:43.017Z,7.37
2019-03-25T22:47:11.743Z,7.07
2019-03-25T22:49:40.544Z,6.27
2019-03-25T22:52:09.257Z,5.57
2019-03-25T22:54:37.984Z,6.37
2019-03-25T22:57:06.771Z,5.90
2019-03-25T22:59:35.481Z,6.20
2019-03-25T23:02:04.296Z,5.53
2019-03-25T23:04:33.189Z,5.60
2019-03-25T23:07:01.909Z,5.97
2019-03-25T23:09:30.630Z,5.53
2019-03-25T23:11:59.426Z,6.17
2019-03-25T23:14:30.594Z,6.20
2019-03-25T23:16:59.404Z,4.93
2019-03-25T23:19:28.299Z,5.20
2019-03-25T23:21:57.118Z,4.57
2019-03-25T23:24:25.913Z,4.50
2019-03-25T23:26:54.932Z,5.00
2019-03-25T23:29:23.757Z,5.03
2019-03-25T23:31:52.558Z,4.90
2019-03-25T23:34:21.473Z,5.70
2019-03-25T23:36:50.322Z,5.70
2019-03-25T23:39:19.132Z,5.77
2019-03-25T23:41:48.113Z,6.10
2019-03-25T23:44:16.926Z,6.27
2019-03-25T23:46:45.743Z,5.60
2019-03-25T23:49:14.758Z,5.93
2019-03-25T23:51:43.578Z,5.83
2019-03-25T23:54:12.788Z,5.93
2019-03-25T23:56:42.638Z,6.40
2019-03-25T23:59:11.459Z,5.50
